Wetterdaten: Woche 29.06.15 - 05.07.15 (KW27)
Datum Zeit Temp. A. Feuchte A. Luftdruck Regen Wind Richtung Taupunkt Windchill Windben
29.06.2015 00:00 15,1 C 71 % 1020,9 hPa 0,0 l/m 0,0 km/h N 9,7 C 15,1 C 0,0 km/h
29.06.2015 01:00 13,6 C 76 % 1020,8 hPa 0,0 l/m 0,0 km/h N 9,4 C 13,6 C 0,0 km/h
29.06.2015 02:00 12,7 C 79 % 1020,8 hPa 0,0 l/m 0,0 km/h N 9,2 C 12,7 C 0,0 km/h
29.06.2015 03:00 12,7 C 80 % 1020,6 hPa 0,0 l/m 0,0 km/h N 9,3 C 12,7 C 0,0 km/h
29.06.2015 04:00 12,8 C 79 % 1020,4 hPa 0,0 l/m 0,0 km/h N 9,2 C 12,8 C 0,0 km/h
29.06.2015 05:00 12,6 C 79 % 1020,6 hPa 0,0 l/m 0,0 km/h N 9,0 C 12,6 C 0,0 km/h
29.06.2015 06:00 12,8 C 81 % 1021,0 hPa 0,0 l/m 0,0 km/h N 9,6 C 12,8 C 0,0 km/h
29.06.2015 07:00 14,2 C 81 % 1020,9 hPa 0,0 l/m 0,0 km/h N 11,0 C 14,2 C 0,0 km/h
29.06.2015 08:00 17,3 C 71 % 1021,1 hPa 0,0 l/m 0,5 km/h N 11,9 C 17,3 C 4,0 km/h
29.06.2015 09:00 19,4 C 62 % 1021,1 hPa 0,0 l/m 3,5 km/h N 11,9 C 19,4 C 10,5 km/h
29.06.2015 10:00 20,5 C 57 % 1021,1 hPa 0,0 l/m 3,6 km/h N 11,6 C 20,5 C 10,9 km/h
29.06.2015 11:00 20,1 C 60 % 1021,5 hPa 0,0 l/m 4,1 km/h N 12,0 C 20,1 C 13,3 km/h
29.06.2015 12:00 20,3 C 59 % 1021,3 hPa 0,0 l/m 3,7 km/h N 12,0 C 20,3 C 10,9 km/h
29.06.2015 13:00 21,2 C 55 % 1021,1 hPa 0,0 l/m 2,5 km/h N 11,9 C 21,2 C 8,4 km/h
29.06.2015 14:00 22,0 C 53 % 1020,7 hPa 0,0 l/m 3,8 km/h N 11,9 C 22,0 C 10,1 km/h
29.06.2015 15:00 22,3 C 54 % 1020,2 hPa 0,0 l/m 2,7 km/h N 12,4 C 22,3 C 10,1 km/h
29.06.2015 16:00 23,0 C 54 % 1019,8 hPa 0,0 l/m 3,3 km/h N 13,1 C 23,0 C 13,3 km/h
29.06.2015 17:00 23,1 C 54 % 1019,5 hPa 0,0 l/m 4,6 km/h N 13,2 C 23,1 C 13,3 km/h
29.06.2015 18:00 24,1 C 52 % 1019,2 hPa 0,0 l/m 2,7 km/h N 13,4 C 24,1 C 9,3 km/h
29.06.2015 19:00 24,5 C 49 % 1019,1 hPa 0,0 l/m 2,0 km/h N 13,1 C 24,5 C 8,9 km/h
29.06.2015 20:00 23,4 C 52 % 1019,4 hPa 0,0 l/m 0,1 km/h N 13,0 C 23,4 C 1,6 km/h
29.06.2015 21:00 20,5 C 63 % 1020,0 hPa 0,0 l/m 0,0 km/h N 13,1 C 20,5 C 0,0 km/h
29.06.2015 22:00 18,0 C 72 % 1020,7 hPa 0,0 l/m 0,0 km/h N 12,8 C 18,0 C 0,0 km/h
29.06.2015 23:00 16,6 C 77 % 1021,0 hPa 0,0 l/m 0,0 km/h N 12,5 C 16,6 C 0,0 km/h
30.06.2015 00:00 15,2 C 79 % 1021,1 hPa 0,0 l/m 0,0 km/h N 11,5 C 15,2 C 0,0 km/h
30.06.2015 01:00 14,3 C 81 % 1021,0 hPa 0,0 l/m 0,0 km/h N 11,2 C 14,3 C 0,0 km/h
30.06.2015 02:00 13,6 C 82 % 1020,9 hPa 0,0 l/m 0,0 km/h N 10,6 C 13,6 C 0,0 km/h
30.06.2015 03:00 13,2 C 82 % 1020,7 hPa 0,0 l/m 0,0 km/h N 10,2 C 13,2 C 0,0 km/h
30.06.2015 04:00 13,4 C 82 % 1020,3 hPa 0,0 l/m 0,0 km/h N 10,4 C 13,4 C 0,0 km/h
30.06.2015 05:00 13,4 C 82 % 1020,7 hPa 0,0 l/m 0,0 km/h N 10,4 C 13,4 C 0,0 km/h
30.06.2015 06:00 13,9 C 82 % 1020,8 hPa 0,0 l/m 0,0 km/h N 10,8 C 13,9 C 0,0 km/h
30.06.2015 07:00 15,6 C 82 % 1020,9 hPa 0,0 l/m 0,0 km/h N 12,5 C 15,6 C 0,0 km/h
30.06.2015 08:00 18,1 C 79 % 1020,9 hPa 0,0 l/m 0,0 km/h N 14,5 C 18,1 C 0,0 km/h
30.06.2015 09:00 22,1 C 66 % 1020,9 hPa 0,0 l/m 0,0 km/h N 15,3 C 22,1 C 0,0 km/h
30.06.2015 10:00 23,9 C 57 % 1020,8 hPa 0,0 l/m 0,0 km/h N 14,7 C 23,9 C 0,0 km/h
30.06.2015 11:00 24,8 C 54 % 1020,7 hPa 0,0 l/m 0,0 km/h N 14,9 C 24,8 C 0,0 km/h
30.06.2015 12:00 26,4 C 49 % 1020,4 hPa 0,0 l/m 0,0 km/h N 14,7 C 26,4 C 0,0 km/h
30.06.2015 13:00 26,6 C 45 % 1020,0 hPa 0,0 l/m 0,4 km/h N 13,6 C 26,6 C 2,8 km/h
30.06.2015 14:00 27,1 C 44 % 1019,4 hPa 0,0 l/m 2,8 km/h N 13,6 C 27,1 C 12,5 km/h
30.06.2015 15:00 27,9 C 41 % 1018,8 hPa 0,0 l/m 2,3 km/h N 13,5 C 27,9 C 11,7 km/h
30.06.2015 16:00 27,6 C 40 % 1018,6 hPa 0,0 l/m 4,3 km/h N 12,6 C 27,6 C 15,3 km/h
30.06.2015 17:00 26,8 C 45 % 1018,6 hPa 0,0 l/m 3,5 km/h N 13,6 C 26,8 C 14,5 km/h
30.06.2015 18:00 25,8 C 48 % 1018,6 hPa 0,0 l/m 2,8 km/h N 13,8 C 25,8 C 11,3 km/h
30.06.2015 19:00 25,2 C 52 % 1018,5 hPa 0,0 l/m 0,2 km/h N 14,6 C 25,2 C 4,0 km/h
30.06.2015 20:00 24,4 C 55 % 1018,5 hPa 0,0 l/m 0,1 km/h N 14,6 C 24,4 C 1,6 km/h
30.06.2015 21:00 23,0 C 60 % 1018,7 hPa 0,0 l/m 0,0 km/h N 14,9 C 23,0 C 0,0 km/h
30.06.2015 22:00 20,6 C 68 % 1019,2 hPa 0,0 l/m 0,0 km/h N 14,4 C 20,6 C 0,0 km/h
30.06.2015 23:00 19,0 C 74 % 1019,4 hPa 0,0 l/m 0,0 km/h N 14,1 C 19,0 C 0,0 km/h
01.07.2015 00:00 17,7 C 77 % 1019,5 hPa 0,0 l/m 0,0 km/h N 13,6 C 17,7 C 0,0 km/h
01.07.2015 01:00 16,6 C 80 % 1019,4 hPa 0,0 l/m 0,0 km/h N 13,1 C 16,6 C 0,0 km/h
01.07.2015 02:00 16,1 C 81 % 1019,4 hPa 0,0 l/m 0,0 km/h N 12,9 C 16,1 C 0,0 km/h
01.07.2015 03:00 15,4 C 82 % 1019,4 hPa 0,0 l/m 0,0 km/h N 12,2 C 15,4 C 0,0 km/h
01.07.2015 04:00 14,8 C 82 % 1019,5 hPa 0,0 l/m 0,0 km/h N 11,7 C 14,8 C 0,0 km/h
01.07.2015 05:00 14,3 C 82 % 1019,8 hPa 0,0 l/m 0,0 km/h N 11,3 C 14,3 C 0,0 km/h
01.07.2015 06:00 15,0 C 82 % 1020,1 hPa 0,0 l/m 0,0 km/h N 11,8 C 15,0 C 0,0 km/h
01.07.2015 07:00 16,6 C 82 % 1020,4 hPa 0,0 l/m 0,0 km/h N 13,5 C 16,6 C 0,0 km/h
01.07.2015 08:00 21,1 C 71 % 1020,4 hPa 0,0 l/m 0,0 km/h N 15,6 C 21,1 C 0,0 km/h
01.07.2015 09:00 24,7 C 56 % 1020,6 hPa 0,0 l/m 0,0 km/h N 15,3 C 24,7 C 0,0 km/h
01.07.2015 10:00 26,7 C 50 % 1020,7 hPa 0,0 l/m 0,0 km/h N 15,3 C 26,7 C 0,0 km/h
01.07.2015 11:00 27,8 C 47 % 1020,6 hPa 0,0 l/m 0,0 km/h N 15,5 C 27,8 C 0,0 km/h
01.07.2015 12:00 28,5 C 47 % 1020,5 hPa 0,0 l/m 0,3 km/h N 16,0 C 28,5 C 2,0 km/h
01.07.2015 13:00 29,1 C 45 % 1020,2 hPa 0,0 l/m 1,9 km/h N 15,8 C 29,1 C 9,3 km/h
01.07.2015 14:00 29,9 C 41 % 1019,8 hPa 0,0 l/m 1,4 km/h N 15,3 C 29,9 C 10,5 km/h
01.07.2015 15:00 29,4 C 40 % 1019,5 hPa 0,0 l/m 1,2 km/h N 14,3 C 29,4 C 8,8 km/h
01.07.2015 16:00 29,2 C 42 % 1019,4 hPa 0,0 l/m 0,7 km/h N 14,9 C 29,2 C 6,8 km/h
01.07.2015 17:00 29,3 C 42 % 1019,1 hPa 0,0 l/m 0,4 km/h N 14,9 C 29,3 C 3,6 km/h
01.07.2015 18:00 29,8 C 42 % 1019,0 hPa 0,0 l/m 0,1 km/h N 15,3 C 29,8 C 2,4 km/h
01.07.2015 19:00 30,6 C 41 % 1018,8 hPa 0,0 l/m 0,1 km/h N 15,8 C 30,6 C 3,2 km/h
01.07.2015 20:00 28,3 C 44 % 1019,1 hPa 0,0 l/m 0,0 km/h N 15,0 C 28,3 C 0,4 km/h
01.07.2015 21:00 25,2 C 54 % 1019,6 hPa 0,0 l/m 0,0 km/h N 15,1 C 25,2 C 0,0 km/h
01.07.2015 22:00 21,9 C 65 % 1020,2 hPa 0,0 l/m 0,0 km/h N 15,0 C 21,9 C 0,0 km/h
01.07.2015 23:00 19,9 C 71 % 1020,7 hPa 0,0 l/m 0,0 km/h N 14,5 C 19,9 C 0,0 km/h
02.07.2015 00:00 18,9 C 74 % 1020,8 hPa 0,0 l/m 0,0 km/h N 14,2 C 18,9 C 0,0 km/h
02.07.2015 01:00 18,2 C 76 % 1021,0 hPa 0,0 l/m 0,0 km/h N 13,8 C 18,2 C 0,0 km/h
02.07.2015 02:00 17,2 C 77 % 1021,2 hPa 0,0 l/m 0,0 km/h N 13,2 C 17,2 C 0,0 km/h
02.07.2015 03:00 16,5 C 79 % 1021,1 hPa 0,0 l/m 0,0 km/h N 12,8 C 16,5 C 0,0 km/h
02.07.2015 04:00 15,8 C 81 % 1021,2 hPa 0,0 l/m 0,0 km/h N 12,5 C 15,8 C 0,0 km/h
02.07.2015 05:00 15,7 C 81 % 1021,3 hPa 0,0 l/m 0,0 km/h N 12,4 C 15,7 C 0,0 km/h
02.07.2015 06:00 16,9 C 80 % 1021,5 hPa 0,0 l/m 0,0 km/h N 13,4 C 16,9 C 0,0 km/h
02.07.2015 07:00 19,3 C 73 % 1021,8 hPa 0,0 l/m 0,0 km/h N 14,3 C 19,3 C 0,0 km/h
02.07.2015 08:00 22,1 C 65 % 1021,9 hPa 0,0 l/m 0,0 km/h N 15,1 C 22,1 C 0,0 km/h
02.07.2015 09:00 25,6 C 54 % 1022,0 hPa 0,0 l/m 0,0 km/h N 15,5 C 25,6 C 0,0 km/h
02.07.2015 10:00 27,2 C 51 % 1022,0 hPa 0,0 l/m 0,0 km/h N 16,1 C 27,2 C 0,0 km/h
02.07.2015 11:00 28,3 C 47 % 1022,0 hPa 0,0 l/m 0,0 km/h N 15,7 C 28,3 C 0,0 km/h
02.07.2015 12:00 29,2 C 43 % 1022,0 hPa 0,0 l/m 0,0 km/h N 15,4 C 29,2 C 0,0 km/h
02.07.2015 13:00 30,6 C 43 % 1021,5 hPa 0,0 l/m 0,0 km/h N 16,4 C 30,6 C 0,0 km/h
02.07.2015 14:00 29,7 C 45 % 1021,4 hPa 0,0 l/m 0,0 km/h N 16,4 C 29,7 C 0,0 km/h
02.07.2015 15:00 29,7 C 45 % 1021,1 hPa 0,0 l/m 0,0 km/h N 16,4 C 29,7 C 0,0 km/h
02.07.2015 16:00 30,1 C 43 % 1020,9 hPa 0,0 l/m 0,0 km/h N 16,0 C 30,1 C 0,0 km/h
02.07.2015 17:00 31,0 C 41 % 1020,7 hPa 0,0 l/m 0,0 km/h N 15,9 C 31,0 C 0,0 km/h
02.07.2015 18:00 31,8 C 41 % 1020,7 hPa 0,0 l/m 0,0 km/h N 16,6 C 31,8 C 0,0 km/h
02.07.2015 19:00 31,5 C 41 % 1020,6 hPa 0,0 l/m 0,0 km/h N 16,6 C 31,5 C 0,0 km/h
02.07.2015 20:00 29,5 C 47 % 1021,0 hPa 0,0 l/m 0,0 km/h N 16,9 C 29,5 C 0,0 km/h
02.07.2015 21:00 25,2 C 57 % 1021,9 hPa 0,0 l/m 0,0 km/h N 16,0 C 25,2 C 0,0 km/h
02.07.2015 22:00 22,0 C 66 % 1022,8 hPa 0,0 l/m 0,0 km/h N 15,3 C 22,0 C 0,0 km/h
02.07.2015 23:00 20,8 C 68 % 1023,0 hPa 0,0 l/m 0,0 km/h N 14,7 C 20,8 C 0,0 km/h
03.07.2015 00:00 19,5 C 72 % 1022,9 hPa 0,0 l/m 0,0 km/h N 14,2 C 19,5 C 0,0 km/h
03.07.2015 01:00 18,5 C 76 % 1023,1 hPa 0,0 l/m 0,0 km/h N 14,1 C 18,5 C 0,0 km/h
03.07.2015 02:00 17,9 C 77 % 1023,2 hPa 0,0 l/m 0,0 km/h N 13,8 C 17,9 C 0,0 km/h
03.07.2015 03:00 17,3 C 78 % 1023,3 hPa 0,0 l/m 0,0 km/h N 13,4 C 17,3 C 0,0 km/h
03.07.2015 04:00 16,7 C 79 % 1023,5 hPa 0,0 l/m 0,0 km/h N 13,1 C 16,7 C 0,0 km/h
03.07.2015 05:00 16,1 C 81 % 1023,9 hPa 0,0 l/m 0,0 km/h N 12,7 C 16,1 C 0,0 km/h
03.07.2015 06:00 16,3 C 82 % 1024,5 hPa 0,0 l/m 0,0 km/h N 13,1 C 16,3 C 0,0 km/h
03.07.2015 07:00 18,2 C 81 % 1024,8 hPa 0,0 l/m 0,0 km/h N 14,9 C 18,2 C 0,0 km/h
03.07.2015 08:00 22,4 C 67 % 1025,1 hPa 0,0 l/m 0,0 km/h N 15,9 C 22,4 C 0,0 km/h
03.07.2015 09:00 25,6 C 52 % 1025,1 hPa 0,0 l/m 2,8 km/h N 14,9 C 25,6 C 9,3 km/h
03.07.2015 10:00 27,8 C 48 % 1024,9 hPa 0,0 l/m 2,7 km/h N 15,7 C 27,8 C 10,5 km/h
03.07.2015 11:00 29,6 C 45 % 1024,9 hPa 0,0 l/m 2,1 km/h N 16,2 C 29,6 C 10,1 km/h
03.07.2015 12:00 30,1 C 44 % 1024,9 hPa 0,0 l/m 2,7 km/h N 16,4 C 30,1 C 12,9 km/h
03.07.2015 13:00 31,0 C 43 % 1024,8 hPa 0,0 l/m 1,9 km/h N 17,0 C 31,0 C 8,9 km/h
03.07.2015 14:00 31,7 C 41 % 1024,6 hPa 0,0 l/m 2,8 km/h N 16,9 C 31,7 C 11,7 km/h
03.07.2015 15:00 31,5 C 41 % 1024,3 hPa 0,0 l/m 2,0 km/h N 16,6 C 31,5 C 9,3 km/h
03.07.2015 16:00 30,3 C 44 % 1024,0 hPa 0,0 l/m 1,9 km/h N 16,6 C 30,3 C 10,1 km/h
03.07.2015 17:00 30,5 C 44 % 1023,7 hPa 0,0 l/m 1,5 km/h N 16,6 C 30,5 C 8,9 km/h
03.07.2015 18:00 31,0 C 42 % 1023,5 hPa 0,0 l/m 1,3 km/h N 16,6 C 31,0 C 9,7 km/h
03.07.2015 19:00 29,9 C 44 % 1023,5 hPa 0,0 l/m 1,4 km/h N 16,4 C 29,9 C 8,0 km/h
03.07.2015 20:00 28,4 C 48 % 1023,6 hPa 0,0 l/m 0,7 km/h N 16,2 C 28,4 C 5,2 km/h
03.07.2015 21:00 26,1 C 55 % 1024,1 hPa 0,0 l/m 0,0 km/h N 16,2 C 26,1 C 2,0 km/h
03.07.2015 22:00 23,1 C 64 % 1024,5 hPa 0,0 l/m 0,0 km/h N 15,9 C 23,1 C 1,6 km/h
03.07.2015 23:00 21,3 C 71 % 1024,4 hPa 0,0 l/m 0,0 km/h N 15,8 C 21,3 C 0,0 km/h
04.07.2015 00:00 20,0 C 75 % 1024,3 hPa 0,0 l/m 0,0 km/h N 15,4 C 20,0 C 0,4 km/h
04.07.2015 01:00 18,9 C 78 % 1023,9 hPa 0,0 l/m 0,0 km/h N 14,9 C 18,9 C 0,0 km/h
04.07.2015 02:00 18,0 C 81 % 1023,5 hPa 0,0 l/m 0,0 km/h N 14,6 C 18,0 C 0,4 km/h
04.07.2015 03:00 17,5 C 81 % 1023,1 hPa 0,0 l/m 0,0 km/h N 14,2 C 17,5 C 0,0 km/h
04.07.2015 04:00 16,9 C 82 % 1023,0 hPa 0,0 l/m 0,0 km/h N 13,7 C 16,9 C 0,0 km/h
04.07.2015 05:00 16,4 C 82 % 1023,1 hPa 0,0 l/m 0,0 km/h N 13,2 C 16,4 C 0,0 km/h
04.07.2015 06:00 16,7 C 81 % 1023,0 hPa 0,0 l/m 0,0 km/h N 13,4 C 16,7 C 0,0 km/h
04.07.2015 07:00 18,3 C 81 % 1023,0 hPa 0,0 l/m 0,0 km/h N 14,9 C 18,3 C 0,0 km/h
04.07.2015 08:00 23,2 C 70 % 1022,7 hPa 0,0 l/m 0,2 km/h N 17,4 C 23,2 C 1,6 km/h
04.07.2015 09:00 27,7 C 56 % 1022,4 hPa 0,0 l/m 0,5 km/h N 17,9 C 27,7 C 4,8 km/h
04.07.2015 10:00 30,1 C 43 % 1022,1 hPa 0,0 l/m 5,0 km/h N 16,1 C 30,1 C 14,1 km/h
04.07.2015 11:00 31,8 C 39 % 1021,8 hPa 0,0 l/m 4,1 km/h N 16,0 C 31,8 C 14,1 km/h
04.07.2015 12:00 32,8 C 37 % 1021,6 hPa 0,0 l/m 3,2 km/h N 16,2 C 32,8 C 14,9 km/h
04.07.2015 13:00 33,5 C 36 % 1021,0 hPa 0,0 l/m 2,7 km/h N 16,1 C 33,5 C 12,9 km/h
04.07.2015 14:00 33,7 C 35 % 1020,6 hPa 0,0 l/m 2,9 km/h N 16,1 C 33,7 C 12,9 km/h
04.07.2015 15:00 33,0 C 34 % 1020,4 hPa 0,0 l/m 1,9 km/h N 14,9 C 33,0 C 8,9 km/h
04.07.2015 16:00 31,7 C 36 % 1020,1 hPa 0,0 l/m 1,6 km/h N 14,7 C 31,7 C 10,1 km/h
04.07.2015 17:00 32,0 C 36 % 1019,7 hPa 0,0 l/m 1,2 km/h N 15,0 C 32,0 C 8,4 km/h
04.07.2015 18:00 32,8 C 34 % 1019,3 hPa 0,0 l/m 0,6 km/h N 15,0 C 32,8 C 5,6 km/h
04.07.2015 19:00 31,8 C 36 % 1019,3 hPa 0,0 l/m 0,5 km/h N 15,0 C 31,8 C 5,6 km/h
04.07.2015 20:00 29,9 C 40 % 1019,3 hPa 0,0 l/m 0,2 km/h N 14,8 C 29,9 C 3,2 km/h
04.07.2015 21:00 26,5 C 50 % 1019,5 hPa 0,0 l/m 0,0 km/h N 15,0 C 26,5 C 0,0 km/h
04.07.2015 22:00 22,8 C 61 % 1019,5 hPa 0,0 l/m 0,0 km/h N 14,7 C 22,8 C 0,0 km/h
04.07.2015 23:00 20,9 C 65 % 1019,4 hPa 0,0 l/m 0,0 km/h N 14,1 C 20,9 C 0,4 km/h
05.07.2015 00:00 19,7 C 70 % 1019,2 hPa 0,0 l/m 0,0 km/h N 14,1 C 19,7 C 0,0 km/h
05.07.2015 01:00 19,8 C 68 % 1019,0 hPa 0,0 l/m 0,4 km/h N 13,8 C 19,8 C 3,2 km/h
05.07.2015 02:00 20,0 C 67 % 1018,6 hPa 0,0 l/m 1,3 km/h N 13,6 C 20,0 C 5,2 km/h
05.07.2015 03:00 19,9 C 68 % 1018,7 hPa 0,0 l/m 0,6 km/h N 13,7 C 19,9 C 5,2 km/h
05.07.2015 04:00 18,9 C 70 % 1018,5 hPa 0,0 l/m 0,1 km/h N 13,3 C 18,9 C 1,2 km/h
05.07.2015 05:00 17,9 C 74 % 1018,6 hPa 0,0 l/m 0,1 km/h N 13,1 C 17,9 C 0,8 km/h
05.07.2015 06:00 18,4 C 76 % 1018,6 hPa 0,0 l/m 0,4 km/h N 14,2 C 18,4 C 3,6 km/h
05.07.2015 07:00 20,2 C 73 % 1018,7 hPa 0,0 l/m 0,0 km/h N 15,3 C 20,2 C 0,8 km/h
05.07.2015 08:00 23,7 C 65 % 1018,6 hPa 0,0 l/m 0,0 km/h N 16,5 C 23,7 C 1,6 km/h
05.07.2015 09:00 27,9 C 53 % 1018,6 hPa 0,0 l/m 0,2 km/h N 17,5 C 27,9 C 2,8 km/h
05.07.2015 10:00 30,4 C 45 % 1018,2 hPa 0,0 l/m 0,4 km/h N 17,1 C 30,4 C 5,2 km/h
05.07.2015 11:00 33,8 C 35 % 1017,7 hPa 0,0 l/m 1,8 km/h N 16,0 C 33,8 C 8,4 km/h
05.07.2015 12:00 35,2 C 32 % 1017,3 hPa 0,0 l/m 1,4 km/h N 16,1 C 35,2 C 9,6 km/h
05.07.2015 13:00 35,9 C 31 % 1016,7 hPa 0,0 l/m 1,9 km/h N 16,2 C 35,9 C 9,3 km/h
05.07.2015 14:00 36,8 C 28 % 1016,0 hPa 0,0 l/m 1,7 km/h N 14,9 C 36,8 C 10,1 km/h
05.07.2015 15:00 36,1 C 28 % 1015,5 hPa 0,0 l/m 1,4 km/h N 14,6 C 36,1 C 10,1 km/h
05.07.2015 16:00 34,5 C 27 % 1015,3 hPa 0,0 l/m 1,5 km/h N 12,9 C 34,5 C 8,0 km/h
05.07.2015 17:00 34,7 C 29 % 1015,0 hPa 0,0 l/m 0,9 km/h N 13,8 C 34,7 C 6,4 km/h
05.07.2015 18:00 35,4 C 27 % 1014,7 hPa 0,0 l/m 0,9 km/h N 13,4 C 35,4 C 7,2 km/h
05.07.2015 19:00 33,1 C 30 % 1014,8 hPa 0,0 l/m 2,6 km/h N 13,3 C 33,1 C 9,7 km/h
05.07.2015 20:00 31,3 C 34 % 1014,4 hPa 0,0 l/m 0,5 km/h N 13,4 C 31,3 C 4,4 km/h
05.07.2015 21:00 27,8 C 42 % 1014,3 hPa 0,0 l/m 0,0 km/h N 13,7 C 27,8 C 0,4 km/h
05.07.2015 22:00 24,5 C 51 % 1014,1 hPa 0,0 l/m 0,0 km/h N 13,6 C 24,5 C 2,4 km/h
05.07.2015 23:00 23,0 C 58 % 1014,1 hPa 0,0 l/m 0,0 km/h N 14,4 C 23,0 C 0,0 km/h
Min-Datum _ 29.06.15 05.07.15 05.07.15 - 29.06.15 - 29.06.15 29.06.15 29.06.15
_ Min-Zeit 05:45 14:45 22:15 - 00:00 - 05:30 05:30 00:00
Minimum _ 12,4 C 26 % 1014,0 hPa - 0,0 km/h - 9,0 C 12,5 C 0,0 km/h
Max-Datum _ 05.07.15 29.06.15 03.07.15 29.06.15 04.07.15 - 05.07.15 05.07.15 30.06.15
_ Max-Zeit 14:45 07:00 09:15 00:00 10:15 - 09:15 14:45 17:45
Maximum _ 37,0 C 82 % 1025,2 hPa 0,0 l/m 6,6 km/h
N
- 18,4 C 36,9 C 24,1 km/h
N
Durchschnitt _ 23,5 C 59 % 1020,6 hPa #0,0 l/m 0,7 km/h N 14,2 C 23,5 C 3,6 km/h